createdAt,value
2018-12-14T00:01:08.130Z,9.23
2018-12-14T00:03:36.255Z,8.90
2018-12-14T00:06:04.202Z,10.23
2018-12-14T00:08:32.259Z,11.50
2018-12-14T00:11:00.820Z,8.60
2018-12-14T00:13:28.924Z,10.03
2018-12-14T00:15:56.900Z,12.03
2018-12-14T00:18:24.863Z,9.07
2018-12-14T00:20:52.820Z,9.27
2018-12-14T00:23:20.804Z,10.37
2018-12-14T00:25:48.757Z,10.77
2018-12-14T00:28:16.709Z,9.77
2018-12-14T00:30:44.768Z,10.13
2018-12-14T00:33:12.784Z,11.10
2018-12-14T00:35:40.971Z,9.03
2018-12-14T00:38:09.053Z,9.57
2018-12-14T00:40:37.100Z,8.13
2018-12-14T00:43:05.067Z,9.50
2018-12-14T00:45:33.161Z,10.70
2018-12-14T00:48:01.209Z,10.17
2018-12-14T00:50:29.149Z,9.13
2018-12-14T00:52:57.130Z,10.33
2018-12-14T00:55:25.169Z,10.30
2018-12-14T00:57:53.128Z,10.53
2018-12-14T01:00:21.175Z,9.87
2018-12-14T01:21:50.803Z,8.73
2018-12-14T01:24:18.781Z,8.60
2018-12-14T01:26:46.748Z,12.60
2018-12-14T01:29:14.717Z,10.57
2018-12-14T01:48:24.313Z,11.63
2018-12-14T01:50:52.459Z,9.63
2018-12-14T01:53:20.415Z,10.40
2018-12-14T01:55:48.371Z,9.37
2018-12-14T01:58:16.436Z,8.77
2018-12-14T02:00:44.420Z,9.70
2018-12-14T02:22:13.990Z,9.60
2018-12-14T02:24:41.945Z,10.80
2018-12-14T02:27:10.000Z,11.43
2018-12-14T02:29:38.063Z,9.63
2018-12-14T02:48:48.301Z,9.63
2018-12-14T02:54:38.781Z,11.10
2018-12-14T02:57:06.731Z,12.23
2018-12-14T02:59:34.698Z,10.63
2018-12-14T03:02:12.588Z,9.63
2018-12-14T03:04:40.549Z,9.90
2018-12-14T03:07:08.513Z,13.33
2018-12-14T03:09:36.564Z,11.33
2018-12-14T03:12:04.524Z,11.33
2018-12-14T03:14:32.523Z,11.17
2018-12-14T03:17:00.658Z,11.10
2018-12-14T03:19:28.620Z,9.90
2018-12-14T03:21:56.620Z,8.93
2018-12-14T03:24:24.613Z,10.37
2018-12-14T03:26:52.578Z,8.47
2018-12-14T03:29:20.533Z,9.50
2018-12-14T03:31:48.698Z,11.37
2018-12-14T03:34:16.708Z,10.07
2018-12-14T03:36:44.707Z,8.00
2018-12-14T03:39:12.833Z,8.53
2018-12-14T03:41:40.809Z,8.73
2018-12-14T03:44:08.789Z,10.47
2018-12-14T03:46:36.860Z,10.93
2018-12-14T03:49:04.807Z,12.13
2018-12-14T03:51:32.764Z,10.50
2018-12-14T03:54:00.748Z,10.93
2018-12-14T03:56:28.759Z,8.77
2018-12-14T03:58:56.678Z,11.10
2018-12-14T04:01:29.653Z,11.07
2018-12-14T04:03:57.616Z,10.50
2018-12-14T04:06:25.668Z,8.73
2018-12-14T04:08:53.819Z,10.03
2018-12-14T04:11:21.780Z,9.00
2018-12-14T04:13:49.725Z,10.83
2018-12-14T04:16:17.872Z,9.30
2018-12-14T04:18:45.829Z,11.00
2018-12-14T04:21:13.786Z,12.53
2018-12-14T04:23:41.928Z,10.67
2018-12-14T04:26:09.874Z,9.43
2018-12-14T04:28:37.814Z,11.50
2018-12-14T04:31:05.976Z,10.80
2018-12-14T04:33:34.121Z,12.47
2018-12-14T04:36:02.179Z,10.30
2018-12-14T04:38:30.321Z,12.17
2018-12-14T04:40:58.268Z,10.37
2018-12-14T04:43:26.314Z,10.40
2018-12-14T04:45:54.397Z,11.97
2018-12-14T04:48:22.360Z,11.03
2018-12-14T04:50:50.305Z,11.63
2018-12-14T04:53:18.465Z,11.77
2018-12-14T04:55:46.450Z,11.30
2018-12-14T04:58:14.464Z,10.37
2018-12-14T05:00:42.438Z,11.00
2018-12-14T05:03:10.491Z,12.30
2018-12-14T05:05:38.454Z,12.33
2018-12-14T05:08:06.424Z,12.70
2018-12-14T05:10:34.386Z,11.27
2018-12-14T05:13:02.346Z,12.03
2018-12-14T05:15:30.510Z,12.70
2018-12-14T05:17:58.539Z,12.47
2018-12-14T05:20:26.514Z,13.90
2018-12-14T05:22:54.584Z,12.37
2018-12-14T05:25:22.565Z,12.07
2018-12-14T05:27:50.525Z,12.87
2018-12-14T05:30:18.736Z,14.13
2018-12-14T05:32:46.700Z,12.00
2018-12-14T05:35:14.700Z,12.00
2018-12-14T05:37:42.739Z,10.93
2018-12-14T05:40:10.756Z,11.73
2018-12-14T05:42:38.701Z,12.53
2018-12-14T05:45:06.741Z,13.83
2018-12-14T05:47:34.700Z,15.70
2018-12-14T05:50:02.702Z,12.43
2018-12-14T05:52:30.675Z,12.83
2018-12-14T05:54:58.628Z,12.70
2018-12-14T05:57:26.588Z,12.67
2018-12-14T05:59:54.595Z,12.03
2018-12-14T06:02:22.680Z,12.70
2018-12-14T06:04:50.641Z,13.43
2018-12-14T06:07:18.633Z,12.03
2018-12-14T06:09:46.601Z,12.07
2018-12-14T06:12:14.663Z,12.30
2018-12-14T06:14:42.665Z,11.47
2018-12-14T06:17:10.623Z,12.17
2018-12-14T06:19:38.573Z,13.93
2018-12-14T06:22:06.620Z,11.67
2018-12-14T06:24:34.589Z,12.57
2018-12-14T06:27:02.595Z,14.90
2018-12-14T06:29:30.656Z,11.70
2018-12-14T06:31:58.620Z,13.37
2018-12-14T06:34:26.580Z,18.23
2018-12-14T06:36:55.379Z,13.57
2018-12-14T06:39:23.380Z,12.73
2018-12-14T06:41:51.648Z,14.10
2018-12-14T06:44:19.712Z,14.07
2018-12-14T06:46:47.664Z,11.73
2018-12-14T06:49:15.732Z,17.83
2018-12-14T06:51:43.801Z,13.73
2018-12-14T06:54:11.749Z,13.73
2018-12-14T06:56:39.788Z,14.10
2018-12-14T06:59:07.892Z,12.40
2018-12-14T07:01:35.837Z,15.53
2018-12-14T07:04:03.868Z,13.73
2018-12-14T07:06:31.850Z,14.03
2018-12-14T07:08:59.865Z,12.97
2018-12-14T07:11:27.808Z,10.03
2018-12-14T07:13:55.888Z,11.87
2018-12-14T07:16:23.836Z,12.60
2018-12-14T07:18:51.800Z,14.70
2018-12-14T07:21:19.868Z,11.77
2018-12-14T07:23:47.828Z,12.87
2018-12-14T07:26:15.812Z,13.27
2018-12-14T07:28:43.892Z,14.30
2018-12-14T07:31:11.876Z,13.40
2018-12-14T07:33:39.828Z,11.77
2018-12-14T07:36:08.125Z,12.10
2018-12-14T07:38:36.165Z,12.93
2018-12-14T07:41:04.229Z,14.40
2018-12-14T07:43:32.292Z,10.50
2018-12-14T07:46:00.241Z,12.60
2018-12-14T07:48:28.192Z,13.30
2018-12-14T07:50:56.276Z,11.23
2018-12-14T07:53:24.259Z,11.23
2018-12-14T07:55:52.208Z,11.93
2018-12-14T07:58:20.463Z,9.97
2018-12-14T08:00:48.464Z,13.00
2018-12-14T08:03:16.514Z,11.53
2018-12-14T08:05:44.512Z,11.53
2018-12-14T08:08:12.454Z,11.33
2018-12-14T08:10:40.487Z,11.60
2018-12-14T08:13:08.702Z,11.40
2018-12-14T08:15:36.758Z,11.83
2018-12-14T08:18:04.712Z,14.20
2018-12-14T08:20:32.749Z,14.10
2018-12-14T08:23:00.703Z,13.77
2018-12-14T08:25:28.660Z,12.80
2018-12-14T08:27:56.650Z,13.20
2018-12-14T08:30:24.746Z,12.83
2018-12-14T08:32:52.709Z,12.17
2018-12-14T08:35:20.689Z,12.33
2018-12-14T08:37:48.649Z,11.37
2018-12-14T08:40:16.645Z,12.77
2018-12-14T08:42:44.629Z,13.60
2018-12-14T08:45:12.673Z,12.30
2018-12-14T08:47:40.680Z,13.17
2018-12-14T08:50:08.716Z,13.13
2018-12-14T08:52:36.721Z,12.63
2018-12-14T08:55:05.258Z,14.60
2018-12-14T08:57:33.403Z,16.27
2018-12-14T09:00:01.481Z,11.97
2018-12-14T09:02:29.492Z,15.93
2018-12-14T09:04:57.508Z,12.50
2018-12-14T09:07:25.566Z,12.57
2018-12-14T09:09:53.520Z,12.40
2018-12-14T09:12:21.549Z,15.00
2018-12-14T09:14:49.589Z,13.10
2018-12-14T09:17:17.645Z,12.30
2018-12-14T09:19:45.693Z,12.77
2018-12-14T09:22:13.677Z,14.60
2018-12-14T09:24:41.716Z,12.63
2018-12-14T09:27:09.703Z,12.13
2018-12-14T09:29:37.647Z,12.07
2018-12-14T09:32:05.639Z,12.23
2018-12-14T09:34:33.720Z,11.60
2018-12-14T09:37:01.680Z,12.23
2018-12-14T09:39:29.719Z,12.03
2018-12-14T09:41:57.715Z,10.87
2018-12-14T09:44:25.669Z,12.13
2018-12-14T09:46:53.800Z,13.67
2018-12-14T09:49:21.917Z,11.50
2018-12-14T09:51:54.786Z,12.63
2018-12-14T09:54:22.816Z,12.00
2018-12-14T09:56:50.780Z,12.50
2018-12-14T09:59:18.719Z,13.30
2018-12-14T10:01:46.705Z,10.57
2018-12-14T10:04:14.665Z,11.67
2018-12-14T10:06:42.677Z,14.83
2018-12-14T10:09:10.652Z,12.13
2018-12-14T10:11:38.703Z,13.93
2018-12-14T10:14:06.668Z,14.80
2018-12-14T10:16:34.772Z,13.47
2018-12-14T10:19:02.964Z,13.40
2018-12-14T10:21:30.928Z,12.77
2018-12-14T10:23:58.984Z,12.17
2018-12-14T10:26:26.953Z,11.67
2018-12-14T10:28:54.909Z,14.60
2018-12-14T10:31:22.901Z,13.90
2018-12-14T10:33:50.856Z,11.93
2018-12-14T10:36:18.824Z,13.47
2018-12-14T10:38:46.804Z,11.77
2018-12-14T10:41:14.756Z,12.93
2018-12-14T10:43:42.716Z,14.07
2018-12-14T10:46:10.732Z,12.47
2018-12-14T10:48:38.685Z,12.67
2018-12-14T10:51:06.633Z,13.23
2018-12-14T10:53:34.693Z,12.10
2018-12-14T10:56:02.649Z,13.27
2018-12-14T10:58:30.644Z,14.00
2018-12-14T11:01:04.250Z,13.20
2018-12-14T11:03:32.209Z,12.10
2018-12-14T11:06:00.163Z,12.00
2018-12-14T11:08:28.187Z,12.53
2018-12-14T11:10:56.136Z,12.70
2018-12-14T11:13:24.939Z,11.30
2018-12-14T11:15:52.924Z,12.53
2018-12-14T11:18:20.884Z,11.77
2018-12-14T11:20:48.839Z,14.17
2018-12-14T11:23:16.913Z,16.30
2018-12-14T11:25:44.875Z,9.63
2018-12-14T11:28:12.837Z,13.10
2018-12-14T11:30:40.830Z,12.07
2018-12-14T11:33:08.798Z,12.97
2018-12-14T11:35:36.759Z,13.00
2018-12-14T11:38:04.744Z,14.73
2018-12-14T11:40:32.700Z,14.87
2018-12-14T11:43:00.661Z,13.83
2018-12-14T11:45:28.704Z,15.63
2018-12-14T11:47:56.695Z,12.93
2018-12-14T11:50:24.819Z,13.97
2018-12-14T11:52:52.881Z,14.20
2018-12-14T11:55:20.854Z,14.03
2018-12-14T11:57:48.814Z,12.63
2018-12-14T12:00:16.805Z,11.90
2018-12-14T12:02:44.760Z,13.77
2018-12-14T12:05:12.719Z,12.87
2018-12-14T12:07:41.774Z,12.13
2018-12-14T12:10:09.771Z,14.77
2018-12-14T12:12:37.869Z,12.10
2018-12-14T12:15:05.899Z,11.50
2018-12-14T12:17:34.689Z,13.57
2018-12-14T12:20:03.089Z,12.50
2018-12-14T12:22:31.072Z,13.33
2018-12-14T12:24:59.021Z,12.97
2018-12-14T12:27:27.120Z,12.97
2018-12-14T12:29:55.184Z,11.10
2018-12-14T12:32:23.149Z,13.93
2018-12-14T12:34:51.113Z,14.17
2018-12-14T12:37:19.097Z,15.00
2018-12-14T12:39:47.083Z,13.90
2018-12-14T12:42:15.039Z,14.33
2018-12-14T12:44:43.034Z,14.47
2018-12-14T12:47:10.991Z,15.27
2018-12-14T12:49:38.928Z,13.80
2018-12-14T12:52:07.056Z,13.57
2018-12-14T12:54:35.003Z,16.23
2018-12-14T12:57:02.961Z,16.27
2018-12-14T12:59:31.081Z,15.60
2018-12-14T13:01:59.085Z,16.13
2018-12-14T13:04:27.079Z,15.13
2018-12-14T13:06:55.148Z,15.17
2018-12-14T13:09:23.104Z,17.67
2018-12-14T13:11:51.121Z,15.30
2018-12-14T13:14:19.134Z,18.40
2018-12-14T13:16:47.127Z,16.50
2018-12-14T13:19:15.078Z,18.90
2018-12-14T13:21:43.144Z,17.60
2018-12-14T13:24:11.097Z,16.67
2018-12-14T13:26:39.051Z,17.17
2018-12-14T13:29:07.121Z,18.30
2018-12-14T13:31:35.093Z,18.77
2018-12-14T13:34:03.099Z,17.80
2018-12-14T13:36:31.076Z,15.63
2018-12-14T13:38:59.038Z,17.60
2018-12-14T13:41:27.095Z,17.10
2018-12-14T13:43:55.214Z,15.53
2018-12-14T13:46:23.198Z,16.57
2018-12-14T13:48:51.153Z,16.87
2018-12-14T13:51:19.407Z,17.17
2018-12-14T13:53:47.499Z,16.47
2018-12-14T13:56:15.424Z,16.63
2018-12-14T13:58:43.504Z,15.07
2018-12-14T14:01:11.535Z,15.20
2018-12-14T14:03:39.500Z,14.17
2018-12-14T14:06:07.580Z,17.47
2018-12-14T14:08:35.545Z,17.27
2018-12-14T14:11:03.503Z,18.00
2018-12-14T14:13:31.548Z,22.13
2018-12-14T14:15:59.564Z,18.07
2018-12-14T14:18:27.576Z,20.43
2018-12-14T14:20:55.604Z,18.47
2018-12-14T14:23:23.654Z,19.67
2018-12-14T14:25:51.624Z,16.67
2018-12-14T14:28:19.609Z,17.70
2018-12-14T14:30:47.573Z,18.67
2018-12-14T14:33:15.567Z,18.57
2018-12-14T14:35:43.753Z,19.03
2018-12-14T14:38:11.710Z,19.27
2018-12-14T14:40:39.677Z,18.87
2018-12-14T14:43:07.669Z,22.17
2018-12-14T14:45:35.620Z,18.50
2018-12-14T14:48:03.733Z,20.87
2018-12-14T14:50:31.711Z,31.53
2018-12-14T14:52:59.668Z,23.87
2018-12-14T14:55:27.731Z,21.07
2018-12-14T14:57:55.840Z,23.17
2018-12-14T15:00:23.833Z,17.87
2018-12-14T15:02:51.919Z,18.27
2018-12-14T15:05:19.917Z,17.37
2018-12-14T15:07:47.880Z,19.50
2018-12-14T15:10:15.840Z,19.97
2018-12-14T15:12:43.832Z,22.23
2018-12-14T15:15:11.788Z,17.97
2018-12-14T15:17:39.824Z,21.60
2018-12-14T15:20:07.895Z,21.97
2018-12-14T15:22:35.864Z,19.93
2018-12-14T15:25:03.900Z,21.07
2018-12-14T15:27:31.967Z,21.00
2018-12-14T15:29:59.928Z,24.60
2018-12-14T15:32:28.127Z,17.80
2018-12-14T15:34:56.124Z,19.47
2018-12-14T15:37:24.073Z,19.50
2018-12-14T15:39:52.030Z,19.93
2018-12-14T15:42:20.131Z,19.40
2018-12-14T15:44:48.149Z,19.43
2018-12-14T15:47:16.240Z,18.73
2018-12-14T15:49:44.399Z,22.13
2018-12-14T15:52:12.355Z,23.03
2018-12-14T15:54:40.325Z,21.40
2018-12-14T15:57:08.411Z,23.57
2018-12-14T15:59:36.346Z,24.27
2018-12-14T16:02:04.400Z,22.33
2018-12-14T16:04:32.400Z,21.20
2018-12-14T16:07:00.386Z,22.40
2018-12-14T16:09:28.412Z,22.07
2018-12-14T16:11:56.467Z,24.77
2018-12-14T16:14:24.428Z,27.13
2018-12-14T16:16:52.439Z,22.93
2018-12-14T16:19:20.456Z,24.83
2018-12-14T16:21:48.490Z,24.87
2018-12-14T16:24:16.436Z,28.07
2018-12-14T16:26:45.172Z,27.30
2018-12-14T16:29:13.192Z,25.67
2018-12-14T16:31:41.174Z,28.30
2018-12-14T16:34:09.244Z,26.83
2018-12-14T16:36:37.268Z,26.23
2018-12-14T16:39:05.573Z,26.40
2018-12-14T16:41:33.560Z,24.73
2018-12-14T16:44:01.529Z,27.33
2018-12-14T16:46:29.476Z,26.77
2018-12-14T16:48:57.630Z,22.63
2018-12-14T16:51:30.509Z,29.07
2018-12-14T16:54:00.952Z,27.03
2018-12-14T16:56:28.933Z,26.60
2018-12-14T16:58:56.951Z,31.63
2018-12-14T17:01:24.941Z,31.57
2018-12-14T17:03:52.953Z,28.67
2018-12-14T17:06:20.949Z,27.30
2018-12-14T17:08:48.963Z,25.60
2018-12-14T17:11:16.980Z,24.67
2018-12-14T17:13:44.940Z,26.57
2018-12-14T17:16:12.959Z,26.47
2018-12-14T17:18:40.925Z,23.93
2018-12-14T17:21:09.665Z,26.00
2018-12-14T17:23:37.803Z,28.77
2018-12-14T17:26:05.765Z,27.90
2018-12-14T17:28:33.734Z,28.70
2018-12-14T17:31:01.719Z,31.00
2018-12-14T17:33:35.901Z,31.37
2018-12-14T17:35:59.608Z,27.90
2018-12-14T17:38:27.596Z,29.17
2018-12-14T17:40:55.557Z,26.47
2018-12-14T17:43:23.508Z,31.27
2018-12-14T17:45:51.577Z,26.67
2018-12-14T17:48:19.591Z,26.93
2018-12-14T17:50:47.553Z,30.83
2018-12-14T17:53:15.538Z,29.00
2018-12-14T17:55:43.505Z,30.07
2018-12-14T17:58:11.512Z,26.57
2018-12-14T18:00:39.518Z,32.50
2018-12-14T18:03:07.477Z,28.63
2018-12-14T18:05:35.432Z,29.73
2018-12-14T18:08:03.463Z,29.93
2018-12-14T18:10:31.463Z,27.20
2018-12-14T18:12:59.434Z,28.30
2018-12-14T18:15:27.419Z,26.17
2018-12-14T18:17:55.380Z,27.50
2018-12-14T18:20:23.342Z,27.27
2018-12-14T18:22:51.464Z,25.80
2018-12-14T18:25:19.589Z,25.17
2018-12-14T18:27:47.541Z,24.50
2018-12-14T18:30:15.588Z,26.43
2018-12-14T18:32:43.570Z,25.10
2018-12-14T18:35:11.595Z,25.53
2018-12-14T18:37:39.576Z,27.63
2018-12-14T18:40:07.576Z,27.03
2018-12-14T18:42:35.544Z,25.73
2018-12-14T18:45:03.898Z,24.73
2018-12-14T18:47:32.506Z,25.30
2018-12-14T18:50:00.456Z,23.30
2018-12-14T18:52:28.444Z,22.90
2018-12-14T18:54:56.505Z,24.53
2018-12-14T18:57:24.484Z,24.80
2018-12-14T18:59:52.476Z,26.97
2018-12-14T19:02:20.441Z,23.63
2018-12-14T19:04:48.403Z,20.73
2018-12-14T19:07:16.484Z,23.90
2018-12-14T19:09:44.520Z,22.67
2018-12-14T19:12:12.485Z,23.20
2018-12-14T19:14:40.541Z,22.07
2018-12-14T19:17:08.589Z,23.07
2018-12-14T19:19:36.588Z,25.30
2018-12-14T19:22:04.668Z,24.27
2018-12-14T19:24:32.631Z,21.83
2018-12-14T19:27:00.577Z,22.90
2018-12-14T19:29:28.649Z,22.13
2018-12-14T19:31:56.668Z,22.47
2018-12-14T19:34:31.173Z,23.30
2018-12-14T19:36:54.600Z,19.53
2018-12-14T19:39:22.595Z,18.57
2018-12-14T19:41:50.609Z,22.93
2018-12-14T19:44:18.602Z,21.27
2018-12-14T19:46:46.613Z,18.53
2018-12-14T19:49:14.576Z,21.60
2018-12-14T19:51:42.604Z,21.57
2018-12-14T19:54:10.563Z,18.57
2018-12-14T19:56:38.573Z,20.23
2018-12-14T19:59:06.601Z,17.87
2018-12-14T20:01:34.585Z,17.93
2018-12-14T20:04:02.529Z,18.70
2018-12-14T20:06:30.696Z,16.83
2018-12-14T20:08:58.647Z,18.23
2018-12-14T20:11:26.584Z,17.30
2018-12-14T20:13:54.652Z,17.73
2018-12-14T20:16:22.613Z,19.60
2018-12-14T20:18:50.659Z,20.70
2018-12-14T20:21:18.724Z,16.77
2018-12-14T20:23:46.689Z,19.33
2018-12-14T20:26:14.644Z,17.27
2018-12-14T20:28:42.739Z,22.73
2018-12-14T20:31:10.765Z,17.23
2018-12-14T20:33:38.716Z,17.97
2018-12-14T20:36:06.805Z,18.67
2018-12-14T20:38:34.758Z,16.40
2018-12-14T20:41:02.716Z,17.20
2018-12-14T20:43:30.775Z,19.87
2018-12-14T20:45:58.740Z,18.17
2018-12-14T20:48:26.691Z,18.63
2018-12-14T20:50:54.688Z,19.40
2018-12-14T20:53:22.652Z,18.03
2018-12-14T20:55:50.619Z,20.33
2018-12-14T20:58:18.692Z,19.27
2018-12-14T21:00:46.665Z,18.57
2018-12-14T21:03:14.665Z,20.40
2018-12-14T21:05:42.750Z,19.50
2018-12-14T21:08:10.711Z,21.17
2018-12-14T21:10:38.689Z,19.37
2018-12-14T21:13:06.686Z,18.33
2018-12-14T21:15:34.649Z,21.53
2018-12-14T21:18:02.700Z,23.67
2018-12-14T21:20:30.697Z,21.83
2018-12-14T21:22:58.661Z,19.23
2018-12-14T21:25:26.751Z,21.93
2018-12-14T21:27:54.740Z,22.17
2018-12-14T21:30:22.747Z,19.40
2018-12-14T21:32:50.703Z,18.83
2018-12-14T21:35:18.777Z,17.43
2018-12-14T21:37:46.737Z,19.93
2018-12-14T21:40:14.749Z,19.93
2018-12-14T21:42:42.741Z,19.03
2018-12-14T21:45:10.744Z,20.63
2018-12-14T21:47:38.720Z,20.97
2018-12-14T21:50:06.836Z,20.13
2018-12-14T21:52:34.784Z,19.80
2018-12-14T21:55:02.887Z,20.83
2018-12-14T21:57:31.180Z,22.00
2018-12-14T21:59:59.139Z,21.90
2018-12-14T22:02:27.103Z,19.97
2018-12-14T22:04:55.189Z,19.83
2018-12-14T22:07:24.451Z,21.53
2018-12-14T22:09:55.025Z,20.13
2018-12-14T22:12:28.697Z,20.10
2018-12-14T22:14:56.760Z,19.30
2018-12-14T22:17:26.637Z,22.13
2018-12-14T22:19:57.285Z,18.37
2018-12-14T22:22:30.132Z,21.83
2018-12-14T22:24:58.193Z,20.60
2018-12-14T22:27:29.692Z,20.93
2018-12-14T22:29:59.774Z,20.17
2018-12-14T22:32:29.751Z,20.23
2018-12-14T22:34:59.445Z,21.43
2018-12-14T22:37:29.661Z,22.50
2018-12-14T22:39:58.917Z,21.27
2018-12-14T22:42:28.040Z,20.93
2018-12-14T22:44:57.325Z,22.07
2018-12-14T22:47:26.035Z,19.27
2018-12-14T22:49:53.976Z,19.40
2018-12-14T22:52:22.302Z,20.93
2018-12-14T22:54:50.352Z,19.00
2018-12-14T22:57:18.308Z,19.73
2018-12-14T22:59:46.397Z,20.50
2018-12-14T23:02:14.359Z,22.57
2018-12-14T23:04:42.309Z,21.23
2018-12-14T23:07:10.390Z,21.23
2018-12-14T23:09:38.440Z,18.20
2018-12-14T23:12:06.404Z,19.83
2018-12-14T23:14:34.516Z,20.60
2018-12-14T23:17:02.444Z,20.30
2018-12-14T23:19:30.414Z,20.77
2018-12-14T23:21:58.413Z,20.50
2018-12-14T23:24:26.381Z,19.03
2018-12-14T23:26:54.342Z,21.77
2018-12-14T23:29:22.318Z,21.70
2018-12-14T23:31:50.380Z,19.90
2018-12-14T23:34:18.348Z,19.57
2018-12-14T23:36:46.339Z,22.50
2018-12-14T23:39:14.563Z,20.47
2018-12-14T23:41:42.525Z,23.57
2018-12-14T23:44:10.520Z,22.17
2018-12-14T23:46:38.564Z,21.17
2018-12-14T23:49:06.536Z,21.13
2018-12-14T23:51:34.701Z,20.80
2018-12-14T23:54:02.796Z,17.83
2018-12-14T23:56:30.764Z,22.23
2018-12-14T23:58:58.762Z,22.47
